METAR Data
IDs: Format: Raw Decoded Include TAF

Data at: 0743 UTC 03 Aug 2021

KBLH 030152Z AUTO 15008KT 10SM SCT110 43/08 A2978 RMK AO2 SLP075 T04330083
KBLH 030052Z AUTO 13005KT 10SM BKN120 44/09 A2978 RMK AO2 SLP075 T04440089
KBLH 022352Z AUTO 12007KT 090V150 10SM BKN110 45/09 A2979 RMK AO2 SLP078 T04500089 10450 20406 56026
KBLH 022252Z AUTO 10008KT 10SM BKN110 44/11 A2981 RMK AO2 SLP085 T04440106
KBLH 022152Z AUTO 12008KT 10SM BKN110 45/08 A2984 RMK AO2 SLP094 T04500083
KBLH 022052Z AUTO 10006KT 10SM SCT110 44/07 A2987 RMK AO2 SLP104 T04390072 58023
KBLH 021952Z AUTO VRB05KT 10SM FEW090 43/08 A2989 RMK AO2 SLP112 T04280078
KBLH 021852Z AUTO 21005KT 10SM CLR 42/06 A2991 RMK AO2 SLP121 T04220061 $
KBLH 021752Z AUTO 00000KT 10SM CLR 41/06 A2993 RMK AO2 SLP127 T04110061 10411 20294 58005
KBLH 021652Z AUTO 00000KT 10SM CLR 39/09 A2994 RMK AO2 SLP129 T03890089
KBLH 021552Z AUTO 24003KT 10SM CLR 36/08 A2995 RMK AO2 SLP132 T03610078
KBLH 021452Z AUTO 00000KT 10SM CLR 33/14 A2995 RMK AO2 SLP133 T03330139 51017
KBLH 021352Z AUTO 00000KT 10SM CLR 31/14 A2994 RMK AO2 SLP129 T03110144
KBLH 021252Z AUTO 34003KT 10SM CLR 30/15 A2992 RMK AO2 SLP123 T03000150
KBLH 021152Z AUTO 34007KT 10SM CLR 31/15 A2990 RMK AO2 SLP115 T03060150 10372 20306 53003
KBLH 021052Z AUTO 31005KT 10SM CLR 31/12 A2989 RMK AO2 SLP114 T03110122
KBLH 020952Z AUTO 19009KT 10SM CLR 33/15 A2988 RMK AO2 SLP109 T03280150
KBLH 020852Z AUTO 18009KT 10SM CLR 33/17 A2989 RMK AO2 SLP113 T03280167 51006
KBLH 020752Z AUTO 19010KT 10SM CLR 34/17 A2988 RMK AO2 SLP109 T03390167 404390311
KBLH 020652Z AUTO 19009KT 10SM CLR 34/06 A2988 RMK AO2 SLP111 T03440061
KBLH 020552Z AUTO 26005KT 10SM CLR 37/01 A2987 RMK AO2 SLP107 T03670006 10433 20367 51017
KBLH 020452Z AUTO 25007KT 10SM CLR 38/01 A2986 RMK AO2 SLP103 T03830006
KBLH 020352Z AUTO 24010KT 10SM CLR 40/02 A2984 RMK AO2 SLP096 T04000022
KBLH 020252Z AUTO 18007KT 10SM FEW120 41/09 A2982 RMK AO2 SLP089 T04060094 55003
KBLH 020152Z AUTO 17009KT 10SM FEW120 42/12 A2982 RMK AO2 SLP088 T04220117
KBLH 020052Z AUTO 18009KT 10SM SCT110 43/11 A2981 RMK AO2 SLP087 T04330111
KBLH 012352Z AUTO 23010G18KT 10SM BKN110 43/11 A2983 RMK AO2 SLP092 T04330111 10439 20394 56020
KBLH 012252Z AUTO 17009KT 10SM SCT110 43/11 A2985 RMK AO2 SLP098 T04330111
KBLH 012152Z AUTO 12007G18KT 10SM FEW110 43/11 A2987 RMK AO2 SLP106 T04280111
KBLH 012052Z AUTO VRB05KT 10SM FEW095 43/12 A2989 RMK AO2 SLP113 T04280122 58021
KBLH 011952Z AUTO VRB03KT 10SM CLR 42/12 A2991 RMK AO2 SLP120 T04170122